LIBV

Details ICAO LIBV
Name GIOIA DEL COLLE
Region Italy
Timezone Europe/Rome (UTC+1.0)
Plans Departing 3
Arriving 8
Stats Elevation 1,187 ft / 362 m (AMSL)
Location 40.767792° 16.933417°
Runways 2
Magnetic Variation 3.738° E
Sunrise 2017-12-17 06:12:02 UTC / 2017-12-17 07:12:02 Local
Sunset 2017-12-17 15:27:25 UTC / 2017-12-17 16:27:25 Local
Advertisement - Login to hide

Runways

ID Width Length Bearing (true) Bearing (mag) Surface Threshold Offset Overrun Length
14L 98 ft / 30 m 9,869 ft / 3,008 m 140.94° 137.20° Asphalt 390 ft / 119 m 154 ft / 47 m
14R 148 ft / 45 m 9,916 ft / 3,023 m 141.16° 137.42° Asphalt 677 ft / 206 m 1,056 ft / 322 m
32L 148 ft / 45 m 9,916 ft / 3,023 m 321.17° 317.43° Asphalt 285 ft / 87 m 166 ft / 51 m
32R 98 ft / 30 m 9,869 ft / 3,008 m 320.95° 317.21° Asphalt 392 ft / 119 m 41 ft / 13 m

Map

Weather


0- 5 10 15 20 25 30 35+ Temperature / ° C

Clouds and Precipitation
Forecast for 2017-12-17 00:00 UTC. Updated an hour ago

Ground ~20,000 ft ~40,000 ft Winds

METAR

LIBV 162355Z 01002KT CAVOK 06/04 Q1008 RMK OVC OVC080 VIS MIN 9999 WIND THR32 /////KT WIND THR14 33002KT BLU

TAF

Not found

Frequencies

Tower 122.45 MHz TWR
Approach 122.10 MHz APP
Tower 122.10 MHz TWR
Approach 130.65 MHz APP
Warning: Do not use this data for real-world aviation or navigation. No guarantee of current accuracy is given.